Time;durP1;ratioP1;P1;durP2;ratioP2;P2;SDS_P1;SDS_P2;PMS_P1;PMS_P2;Temp;Humidity;BMP_temperature;BMP_pressure;BME280_temperature;BME280_humidity;BME280_pressure;Samples;Min_cycle;Max_cycle;Signal;HPM_P1;HPM_P2
2022/07/11 00:00:10;;;;;;;5.78;1.40;;;16.00;99.90;;;;;;5088729;28;20032;-64
2022/07/11 00:02:38;;;;;;;6.43;1.48;;;16.00;99.90;;;;;;5074480;28;20046;-66
2022/07/11 00:05:05;;;;;;;4.45;1.60;;;16.00;99.90;;;;;;5088416;28;20044;-65
2022/07/11 00:07:30;;;;;;;5.70;1.70;;;16.00;99.90;;;;;;5092035;28;20502;-65
2022/07/11 00:09:56;;;;;;;7.40;1.60;;;16.00;99.90;;;;;;5089213;28;20083;-66
2022/07/11 00:12:25;;;;;;;6.03;2.00;;;16.00;99.90;;;;;;5091620;28;20043;-65
2022/07/11 00:14:50;;;;;;;4.47;1.40;;;16.00;99.90;;;;;;5089350;28;20054;-66
2022/07/11 00:17:16;;;;;;;4.97;1.65;;;15.90;99.90;;;;;;5089348;28;20492;-65
2022/07/11 00:19:42;;;;;;;4.97;1.65;;;15.90;99.90;;;;;;5089161;28;20032;-64
2022/07/11 00:22:09;;;;;;;4.18;1.92;;;15.80;99.90;;;;;;5089146;28;20059;-65
2022/07/11 00:24:35;;;;;;;4.85;1.48;;;15.80;99.90;;;;;;5072512;28;20035;-65
2022/07/11 00:27:01;;;;;;;7.60;1.80;;;15.80;99.90;;;;;;5089303;28;20044;-64
2022/07/11 00:29:26;;;;;;;7.10;1.83;;;15.80;99.90;;;;;;5090404;28;20445;-65
2022/07/11 00:31:52;;;;;;;5.78;1.70;;;15.70;99.90;;;;;;5089184;28;20064;-64
2022/07/11 00:34:17;;;;;;;5.10;1.70;;;15.80;99.90;;;;;;5087191;28;20098;-64
2022/07/11 00:36:44;;;;;;;6.35;2.00;;;15.70;99.90;;;;;;5089641;28;20084;-65
2022/07/11 00:39:10;;;;;;;5.57;1.80;;;15.70;99.90;;;;;;5094742;28;20024;-65
2022/07/11 00:41:35;;;;;;;4.78;1.73;;;15.70;99.90;;;;;;5094077;28;20028;-65
2022/07/11 00:44:01;;;;;;;5.18;1.95;;;15.70;99.90;;;;;;5096668;28;20093;-65
2022/07/11 00:46:29;;;;;;;6.43;2.38;;;15.70;99.90;;;;;;5094720;28;20044;-64
2022/07/11 00:48:55;;;;;;;6.35;1.65;;;15.70;99.90;;;;;;5096395;28;20501;-65
2022/07/11 00:51:22;;;;;;;4.13;2.08;;;15.70;99.90;;;;;;5096661;28;20450;-66
2022/07/11 00:53:53;;;;;;;5.05;1.90;;;15.70;99.90;;;;;;5097019;28;20703;-65
2022/07/11 00:56:25;;;;;;;4.50;1.63;;;15.70;99.90;;;;;;5095971;28;20039;-64
2022/07/11 00:58:52;;;;;;;5.35;2.88;;;15.70;99.90;;;;;;5096049;28;20107;-66
2022/07/11 01:01:18;;;;;;;3.20;1.77;;;15.60;99.90;;;;;;5095175;28;20063;-65
2022/07/11 01:03:45;;;;;;;3.38;1.65;;;15.70;99.90;;;;;;5095149;28;20028;-65
2022/07/11 01:06:11;;;;;;;5.00;1.65;;;15.70;99.90;;;;;;5096581;28;20051;-64
2022/07/11 01:08:38;;;;;;;3.08;1.42;;;15.70;99.90;;;;;;5096008;28;20040;-65
2022/07/11 01:11:18;;;;;;;5.22;2.58;;;15.60;99.90;;;;;;5095356;28;20040;-66
2022/07/11 01:13:45;;;;;;;5.03;1.52;;;15.60;99.90;;;;;;5095884;28;20076;-65
2022/07/11 01:16:15;;;;;;;5.20;1.55;;;15.70;99.90;;;;;;5094465;28;20040;-66
2022/07/11 01:18:54;;;;;;;3.50;1.40;;;15.60;99.90;;;;;;5091744;28;20506;-66
2022/07/11 01:21:22;;;;;;;3.40;2.00;;;15.60;99.90;;;;;;5095083;28;20183;-63
2022/07/11 01:23:49;;;;;;;3.30;1.83;;;15.60;99.90;;;;;;5126962;27;20115;-65
2022/07/11 01:26:19;;;;;;;5.82;1.50;;;15.60;99.90;;;;;;5079634;28;20046;-65
2022/07/11 01:28:44;;;;;;;3.72;1.55;;;15.60;99.90;;;;;;5094146;28;20528;-65
2022/07/11 01:31:12;;;;;;;4.18;1.60;;;15.60;99.90;;;;;;5097223;28;20066;-66
2022/07/11 01:33:38;;;;;;;4.07;1.65;;;15.60;99.90;;;;;;5095021;28;20032;-65
2022/07/11 01:36:04;;;;;;;4.50;1.80;;;15.60;99.90;;;;;;5096313;28;20039;-65
2022/07/11 01:38:29;;;;;;;4.22;1.98;;;15.60;99.90;;;;;;5095852;28;20028;-65
2022/07/11 01:40:55;;;;;;;4.68;1.80;;;15.60;99.90;;;;;;5127735;27;20478;-64
2022/07/11 01:43:21;;;;;;;3.08;1.80;;;15.60;99.90;;;;;;5095903;28;20063;-65
2022/07/11 01:45:51;;;;;;;5.70;1.63;;;15.60;99.90;;;;;;5129478;27;20071;-65
2022/07/11 01:48:16;;;;;;;2.97;1.80;;;15.60;99.90;;;;;;5096738;28;20039;-66
2022/07/11 01:50:42;;;;;;;3.70;1.90;;;15.60;99.90;;;;;;5090686;28;20043;-65
2022/07/11 01:53:07;;;;;;;4.82;1.98;;;15.60;99.90;;;;;;5092087;28;20071;-65
2022/07/11 01:55:33;;;;;;;3.83;1.60;;;15.60;99.90;;;;;;5091617;28;20485;-65
2022/07/11 01:57:59;;;;;;;7.03;2.50;;;15.60;99.90;;;;;;5092566;28;20089;-66
2022/07/11 02:00:24;;;;;;;6.97;2.50;;;15.60;99.90;;;;;;5092887;28;20040;-65
2022/07/11 02:02:50;;;;;;;3.47;1.75;;;15.60;99.90;;;;;;5123471;27;20082;-65
2022/07/11 02:05:16;;;;;;;4.25;1.90;;;15.60;99.90;;;;;;5091710;28;20036;-65
2022/07/11 02:10:29;;;;;;;3.22;1.65;;;15.60;99.90;;;;;;5092532;28;20036;-65
2022/07/11 02:12:56;;;;;;;5.65;2.22;;;15.60;99.90;;;;;;5095361;28;20086;-65
2022/07/11 02:15:21;;;;;;;3.95;1.60;;;15.60;99.90;;;;;;5091584;28;20538;-65
2022/07/11 02:17:47;;;;;;;1.98;1.42;;;15.60;99.90;;;;;;5092986;28;20128;-65
2022/07/11 02:20:13;;;;;;;2.17;1.55;;;15.60;99.90;;;;;;5091672;28;20156;-66
2022/07/11 02:22:38;;;;;;;3.95;1.50;;;15.60;99.90;;;;;;5093123;28;20397;-65
2022/07/11 02:25:04;;;;;;;5.28;1.70;;;15.60;99.90;;;;;;5092693;28;20054;-65
2022/07/11 02:27:30;;;;;;;5.82;2.03;;;15.60;99.90;;;;;;5094138;28;20508;-65
2022/07/11 02:29:56;;;;;;;3.17;1.80;;;15.60;99.90;;;;;;5088809;28;20032;-64
2022/07/11 02:32:21;;;;;;;5.50;1.70;;;15.60;99.90;;;;;;5089574;28;20044;-65
2022/07/11 02:34:47;;;;;;;5.18;1.85;;;15.60;99.90;;;;;;5090938;28;20561;-65
2022/07/11 02:37:12;;;;;;;5.85;2.22;;;15.60;99.90;;;;;;5091981;28;20064;-65
2022/07/11 02:39:38;;;;;;;5.93;1.92;;;15.60;99.90;;;;;;5091155;28;20048;-65
2022/07/11 02:42:04;;;;;;;4.93;2.08;;;15.60;99.90;;;;;;5091104;28;20451;-65
2022/07/11 02:44:30;;;;;;;3.15;1.70;;;15.60;99.90;;;;;;5090630;28;20032;-65
2022/07/11 02:46:56;;;;;;;4.75;2.10;;;15.50;99.90;;;;;;5073167;28;20129;-66
2022/07/11 02:49:23;;;;;;;3.92;1.95;;;15.50;99.90;;;;;;5091089;28;20090;-63
2022/07/11 02:51:48;;;;;;;3.70;1.88;;;15.50;99.90;;;;;;5090584;28;20044;-65
2022/07/11 02:54:14;;;;;;;4.25;1.73;;;15.50;99.90;;;;;;5090808;28;20051;-65
2022/07/11 02:56:39;;;;;;;4.45;2.00;;;15.50;99.90;;;;;;5123124;27;20072;-66
2022/07/11 02:59:05;;;;;;;2.42;1.52;;;15.50;99.90;;;;;;5090423;28;20036;-65
2022/07/11 03:01:31;;;;;;;4.53;1.73;;;15.50;99.90;;;;;;5073520;28;20063;-64
2022/07/11 03:03:56;;;;;;;4.78;1.95;;;15.50;99.90;;;;;;5090296;28;20044;-64
2022/07/11 03:06:22;;;;;;;3.08;1.67;;;15.50;99.90;;;;;;5090931;28;20055;-65
2022/07/11 03:08:48;;;;;;;5.32;1.67;;;15.50;99.90;;;;;;5090731;28;20040;-66
2022/07/11 03:11:14;;;;;;;3.85;1.38;;;15.50;99.90;;;;;;5124645;27;20119;-65
2022/07/11 03:13:39;;;;;;;5.05;1.90;;;15.50;99.90;;;;;;5090427;28;20127;-66
2022/07/11 03:16:05;;;;;;;5.68;1.80;;;15.50;99.90;;;;;;5090180;28;20495;-65
2022/07/11 03:18:31;;;;;;;5.03;1.73;;;15.50;99.90;;;;;;5091387;28;20032;-65
2022/07/11 03:20:56;;;;;;;3.00;1.67;;;15.50;99.90;;;;;;5090520;28;20115;-64
2022/07/11 03:23:22;;;;;;;3.15;1.70;;;15.50;99.90;;;;;;5091724;28;20115;-65
2022/07/11 03:25:48;;;;;;;3.10;2.00;;;15.40;99.90;;;;;;5089628;28;20056;-65
2022/07/11 03:28:13;;;;;;;4.30;1.60;;;15.40;99.90;;;;;;5092764;28;20057;-65
2022/07/11 03:30:39;;;;;;;3.20;1.50;;;15.40;99.90;;;;;;5119201;27;20123;-66
2022/07/11 03:33:05;;;;;;;5.03;1.80;;;15.40;99.90;;;;;;5089841;28;20048;-65
2022/07/11 03:35:42;;;;;;;2.45;1.40;;;15.40;99.90;;;;;;5091326;28;20036;-66
2022/07/11 03:38:09;;;;;;;4.32;1.85;;;15.40;99.90;;;;;;5089134;28;20119;-65
2022/07/11 03:40:35;;;;;;;5.38;1.90;;;15.40;99.90;;;;;;5089669;28;20036;-64
2022/07/11 03:43:01;;;;;;;3.40;1.65;;;15.40;99.90;;;;;;5087915;28;20568;-65
2022/07/11 03:45:27;;;;;;;4.32;1.60;;;15.40;99.90;;;;;;5088859;28;20035;-65
2022/07/11 03:47:53;;;;;;;6.53;2.10;;;15.40;99.90;;;;;;5073806;28;20089;-64
2022/07/11 03:50:19;;;;;;;5.47;2.17;;;15.50;99.90;;;;;;5089234;28;20147;-64
2022/07/11 03:52:45;;;;;;;4.78;1.83;;;15.40;99.90;;;;;;5103706;28;20131;-65
2022/07/11 03:55:10;;;;;;;4.75;1.75;;;15.40;99.90;;;;;;5090691;28;20044;-65
2022/07/11 03:57:36;;;;;;;6.47;2.28;;;15.40;99.90;;;;;;5088831;28;20105;-65
2022/07/11 04:00:05;;;;;;;4.97;2.00;;;15.40;99.90;;;;;;5090819;28;20040;-64
2022/07/11 04:02:34;;;;;;;5.35;2.58;;;15.40;99.90;;;;;;5089339;28;20120;-66
2022/07/11 04:05:00;;;;;;;3.40;2.05;;;15.40;99.90;;;;;;5089475;28;20084;-63
2022/07/11 04:07:29;;;;;;;2.95;1.98;;;15.40;99.90;;;;;;5088850;28;20051;-65
2022/07/11 04:09:55;;;;;;;6.00;2.40;;;15.40;99.90;;;;;;5071444;28;20051;-65
2022/07/11 04:12:21;;;;;;;6.63;2.05;;;15.40;99.90;;;;;;5090124;28;20036;-65
2022/07/11 04:14:47;;;;;;;4.97;2.50;;;15.30;99.90;;;;;;5088559;28;20043;-65
2022/07/11 04:17:13;;;;;;;4.88;2.20;;;15.30;99.90;;;;;;5086223;28;20039;-65
2022/07/11 04:19:39;;;;;;;4.28;2.20;;;15.30;99.90;;;;;;5088713;28;20055;-65
2022/07/11 04:22:05;;;;;;;5.70;2.30;;;15.30;99.90;;;;;;5090670;28;20413;-65
2022/07/11 04:24:31;;;;;;;4.38;2.45;;;15.30;99.90;;;;;;5122171;27;20394;-65
2022/07/11 04:26:57;;;;;;;5.47;2.67;;;15.30;99.90;;;;;;5090323;28;20032;-64
2022/07/11 04:29:23;;;;;;;5.60;2.42;;;15.30;99.90;;;;;;5088335;28;20467;-66
2022/07/11 04:31:50;;;;;;;5.60;2.40;;;15.30;99.90;;;;;;5090695;28;20397;-65
2022/07/11 04:34:16;;;;;;;3.63;2.17;;;15.30;99.90;;;;;;5095050;28;20047;-65
2022/07/11 04:36:43;;;;;;;5.45;2.55;;;15.30;99.90;;;;;;5083827;28;20055;-66
2022/07/11 04:39:08;;;;;;;5.22;2.50;;;15.40;99.90;;;;;;5090073;28;20036;-64
2022/07/11 04:41:34;;;;;;;3.45;2.15;;;15.40;99.90;;;;;;5090499;28;20505;-64
2022/07/11 04:44:00;;;;;;;3.03;1.70;;;15.50;99.90;;;;;;5089089;28;20478;-64
2022/07/11 04:46:26;;;;;;;3.55;1.92;;;15.50;99.90;;;;;;5089635;28;20036;-65
2022/07/11 04:48:52;;;;;;;3.58;1.67;;;15.50;99.90;;;;;;5088176;28;20047;-65
2022/07/11 04:51:17;;;;;;;2.05;1.85;;;15.60;99.90;;;;;;5092887;28;20040;-65
2022/07/11 04:53:43;;;;;;;3.97;1.45;;;15.60;99.90;;;;;;5072103;28;20054;-65
2022/07/11 04:56:09;;;;;;;2.17;1.52;;;15.70;99.90;;;;;;5089063;28;20464;-66
2022/07/11 04:58:35;;;;;;;2.80;1.45;;;15.70;99.90;;;;;;5088809;28;20040;-65
2022/07/11 05:01:02;;;;;;;3.55;1.42;;;15.70;99.90;;;;;;5088016;28;20047;-65
2022/07/11 05:03:28;;;;;;;4.43;1.55;;;15.80;99.90;;;;;;5091284;28;20457;-65
2022/07/11 05:05:54;;;;;;;2.10;1.40;;;15.80;99.90;;;;;;5089175;28;20044;-65
2022/07/11 05:08:19;;;;;;;1.48;1.20;;;15.90;99.90;;;;;;5088146;28;20089;-65
2022/07/11 05:10:45;;;;;;;3.90;1.27;;;15.90;99.90;;;;;;5089365;28;20068;-65
2022/07/11 05:13:11;;;;;;;2.17;1.30;;;15.90;99.90;;;;;;5096098;28;20042;-64
2022/07/11 05:15:38;;;;;;;3.30;1.25;;;15.90;99.90;;;;;;5089667;28;20483;-65
2022/07/11 05:18:04;;;;;;;1.52;1.17;;;16.00;99.90;;;;;;5088426;28;20047;-64
2022/07/11 05:20:29;;;;;;;2.30;0.93;;;16.00;99.90;;;;;;5089559;28;20475;-65
2022/07/11 05:22:56;;;;;;;1.38;1.20;;;16.00;99.90;;;;;;5087948;28;20084;-64
2022/07/11 05:25:22;;;;;;;2.58;1.17;;;16.10;99.90;;;;;;5090252;28;20048;-65
2022/07/11 05:27:47;;;;;;;1.52;1.10;;;16.10;99.90;;;;;;5090959;28;20039;-65
2022/07/11 05:30:13;;;;;;;1.90;1.10;;;16.10;99.90;;;;;;5093750;28;20620;-65
2022/07/11 05:32:39;;;;;;;1.00;0.70;;;16.20;99.90;;;;;;5095133;28;20993;-64
2022/07/11 05:35:05;;;;;;;2.65;0.90;;;16.20;99.90;;;;;;5093841;28;20070;-66
2022/07/11 05:37:31;;;;;;;0.88;0.80;;;16.30;99.90;;;;;;5092464;28;20089;-66
2022/07/11 05:39:56;;;;;;;1.08;0.80;;;16.40;99.90;;;;;;5092266;28;20058;-64
2022/07/11 05:42:22;;;;;;;1.38;0.70;;;16.40;99.90;;;;;;5093593;28;20426;-66
2022/07/11 05:44:49;;;;;;;1.83;0.70;;;16.40;99.90;;;;;;5093223;28;20483;-65
2022/07/11 05:47:15;;;;;;;1.00;0.55;;;16.30;99.90;;;;;;5092208;28;20122;-64
2022/07/11 05:49:41;;;;;;;1.98;0.52;;;16.30;99.90;;;;;;5093040;28;20044;-64
2022/07/11 05:52:07;;;;;;;1.23;0.60;;;16.30;99.90;;;;;;5090404;28;20089;-64
2022/07/11 05:54:33;;;;;;;1.25;0.60;;;16.20;99.90;;;;;;5091595;28;20052;-64
2022/07/11 05:57:01;;;;;;;1.02;0.50;;;16.20;99.90;;;;;;5091627;28;20391;-65
2022/07/11 05:59:27;;;;;;;1.70;0.60;;;16.20;99.90;;;;;;5091498;28;20550;-65
2022/07/11 06:01:52;;;;;;;1.23;0.40;;;16.10;99.90;;;;;;5093140;28;20039;-63
2022/07/11 06:04:18;;;;;;;1.23;0.70;;;16.20;99.90;;;;;;5095532;28;20044;-64
2022/07/11 06:06:43;;;;;;;0.90;0.60;;;16.20;99.90;;;;;;5087106;28;20398;-64
2022/07/11 06:09:09;;;;;;;0.80;0.60;;;16.30;99.90;;;;;;5085696;28;20088;-64
2022/07/11 06:11:35;;;;;;;2.33;0.65;;;16.40;99.90;;;;;;5086341;28;20423;-65
2022/07/11 06:14:00;;;;;;;0.45;0.45;;;16.50;99.90;;;;;;5090190;28;20048;-64
2022/07/11 06:16:26;;;;;;;0.75;0.30;;;16.40;99.90;;;;;;5086189;28;20040;-66
2022/07/11 06:18:52;;;;;;;0.60;0.40;;;16.50;99.90;;;;;;5090432;28;20028;-64
2022/07/11 06:21:20;;;;;;;0.90;0.43;;;16.60;99.90;;;;;;5092394;28;20507;-65
2022/07/11 06:23:45;;;;;;;0.40;0.32;;;16.60;99.90;;;;;;5090341;28;20402;-65
2022/07/11 06:26:11;;;;;;;0.77;0.30;;;16.60;99.90;;;;;;5092085;28;20043;-64
2022/07/11 06:28:39;;;;;;;0.77;0.38;;;16.70;99.90;;;;;;5091470;28;20040;-66
2022/07/11 06:31:05;;;;;;;0.55;0.32;;;16.70;99.90;;;;;;5091151;28;20091;-64
2022/07/11 06:33:32;;;;;;;0.38;0.30;;;16.80;99.90;;;;;;5088123;28;20102;-64
2022/07/11 06:35:57;;;;;;;0.65;0.50;;;16.80;99.90;;;;;;5087293;28;20095;-64
2022/07/11 06:38:23;;;;;;;1.08;0.88;;;16.80;99.90;;;;;;5125188;27;20061;-64
2022/07/11 06:40:49;;;;;;;2.47;0.70;;;16.60;99.90;;;;;;5089341;28;20490;-65
2022/07/11 06:43:15;;;;;;;0.57;0.40;;;16.60;99.90;;;;;;5124783;27;20040;-64
2022/07/11 06:45:40;;;;;;;0.30;0.30;;;16.70;99.90;;;;;;5089437;28;20075;-65
2022/07/11 06:48:06;;;;;;;0.73;0.40;;;16.60;99.90;;;;;;5091843;28;20032;-64
2022/07/11 06:50:33;;;;;;;0.32;0.30;;;16.60;99.90;;;;;;5090301;28;20024;-65
2022/07/11 06:52:58;;;;;;;0.52;0.40;;;16.60;99.90;;;;;;5090684;28;20058;-63
2022/07/11 06:55:24;;;;;;;0.43;0.40;;;16.70;99.90;;;;;;5090469;28;20036;-64
2022/07/11 06:57:50;;;;;;;0.30;0.30;;;16.80;99.90;;;;;;5087769;28;20036;-65
2022/07/11 07:00:17;;;;;;;0.30;0.30;;;16.90;99.90;;;;;;5088744;28;20075;-65
2022/07/11 07:02:43;;;;;;;0.57;0.40;;;17.00;99.90;;;;;;5089667;28;20040;-63
2022/07/11 07:05:09;;;;;;;0.65;0.30;;;17.10;99.90;;;;;;5090553;28;20052;-65
2022/07/11 07:07:35;;;;;;;0.30;0.30;;;17.10;99.90;;;;;;5091092;28;20517;-66
2022/07/11 07:10:01;;;;;;;0.50;0.30;;;17.10;99.90;;;;;;5090584;28;20120;-65
2022/07/11 07:12:26;;;;;;;1.00;0.30;;;17.00;99.90;;;;;;5091822;28;20036;-64
2022/07/11 07:14:52;;;;;;;1.20;0.32;;;17.00;99.90;;;;;;5089791;28;20040;-65
2022/07/11 07:17:18;;;;;;;1.02;0.40;;;17.10;99.90;;;;;;5090370;28;20854;-64
2022/07/11 07:19:44;;;;;;;1.15;0.30;;;17.10;99.90;;;;;;5090459;28;20063;-65
2022/07/11 07:22:10;;;;;;;0.55;0.30;;;17.20;99.90;;;;;;5090198;28;20059;-63
2022/07/11 07:24:36;;;;;;;0.38;0.30;;;17.20;99.90;;;;;;5090006;28;20032;-65
2022/07/11 07:27:05;;;;;;;0.38;0.30;;;17.10;99.90;;;;;;5091494;28;20036;-65
2022/07/11 07:29:32;;;;;;;0.30;0.30;;;17.10;99.90;;;;;;5090213;28;20051;-64
2022/07/11 07:31:59;;;;;;;1.27;0.40;;;16.90;99.90;;;;;;5090051;28;20510;-64
2022/07/11 07:34:25;;;;;;;1.80;0.22;;;16.90;99.90;;;;;;5089610;28;20096;-65
2022/07/11 07:36:50;;;;;;;0.30;0.30;;;16.90;99.90;;;;;;5090089;28;20036;-65
2022/07/11 07:39:16;;;;;;;0.40;0.40;;;16.90;99.90;;;;;;5089950;28;20055;-63
2022/07/11 07:41:42;;;;;;;0.45;0.45;;;16.90;99.90;;;;;;5089757;28;20044;-64
2022/07/11 07:44:08;;;;;;;0.73;0.40;;;17.00;99.90;;;;;;5091256;28;20408;-65
2022/07/11 07:46:33;;;;;;;0.95;0.40;;;17.10;99.90;;;;;;5090520;28;20035;-65
2022/07/11 07:48:59;;;;;;;0.20;0.20;;;17.10;99.90;;;;;;5090462;28;20042;-64
2022/07/11 07:51:26;;;;;;;1.05;0.30;;;17.10;99.90;;;;;;5091029;28;20069;-65
2022/07/11 07:53:52;;;;;;;0.70;0.30;;;17.20;99.90;;;;;;5091125;28;20036;-65
2022/07/11 07:56:17;;;;;;;0.47;0.40;;;17.20;99.90;;;;;;5068560;28;20135;-65
2022/07/11 07:58:43;;;;;;;1.40;0.30;;;17.20;99.90;;;;;;5090463;28;20441;-65
2022/07/11 08:03:53;;;;;;;0.30;0.20;;;17.10;99.90;;;;;;5089389;28;20543;-65
2022/07/11 08:06:19;;;;;;;0.95;0.30;;;17.10;99.90;;;;;;5070527;28;20056;-64
2022/07/11 08:08:45;;;;;;;2.22;0.50;;;17.10;99.90;;;;;;5088696;28;20390;-65
2022/07/11 08:11:10;;;;;;;0.38;0.30;;;17.10;99.90;;;;;;5089564;28;20155;-65
2022/07/11 08:13:37;;;;;;;0.30;0.30;;;17.10;99.90;;;;;;5089230;28;20093;-65
2022/07/11 08:16:06;;;;;;;0.55;0.40;;;17.10;99.90;;;;;;5089412;28;20047;-65
2022/07/11 08:18:33;;;;;;;0.32;0.20;;;17.00;99.90;;;;;;5089057;28;20044;-65
2022/07/11 08:20:59;;;;;;;0.35;0.30;;;17.00;99.90;;;;;;5090891;28;20036;-65
2022/07/11 08:23:25;;;;;;;0.40;0.30;;;17.10;99.90;;;;;;5090632;28;20500;-64
2022/07/11 08:25:51;;;;;;;0.30;0.20;;;17.20;99.90;;;;;;5088982;28;20115;-65
2022/07/11 08:28:17;;;;;;;0.30;0.30;;;17.30;99.90;;;;;;5071811;28;20056;-64
2022/07/11 08:30:42;;;;;;;0.40;0.30;;;17.50;99.90;;;;;;5072262;28;20044;-65
2022/07/11 08:33:08;;;;;;;1.45;0.30;;;17.70;99.90;;;;;;5090495;28;20071;-66
2022/07/11 08:35:34;;;;;;;0.50;0.20;;;17.70;99.90;;;;;;5123119;27;20044;-64
2022/07/11 08:37:59;;;;;;;0.25;0.25;;;17.90;99.90;;;;;;5088812;28;20487;-63
2022/07/11 08:40:25;;;;;;;0.50;0.20;;;17.80;99.90;;;;;;5089091;28;20040;-65
2022/07/11 08:42:51;;;;;;;1.13;0.30;;;17.60;99.90;;;;;;5088627;28;20479;-64
2022/07/11 08:45:17;;;;;;;0.45;0.30;;;17.60;99.90;;;;;;5089052;28;20063;-66
2022/07/11 08:47:44;;;;;;;0.85;0.30;;;17.70;99.90;;;;;;5088763;28;20047;-65
2022/07/11 08:50:12;;;;;;;0.57;0.30;;;17.80;99.90;;;;;;5088602;28;20075;-65
2022/07/11 08:52:38;;;;;;;1.17;0.30;;;17.80;99.90;;;;;;5088760;28;20395;-66
2022/07/11 08:55:07;;;;;;;0.82;0.43;;;18.10;99.90;;;;;;5088731;28;20048;-64
2022/07/11 08:57:36;;;;;;;1.17;0.35;;;18.50;99.90;;;;;;5071993;28;20166;-64
2022/07/11 09:00:05;;;;;;;0.70;0.40;;;18.80;99.90;;;;;;5091181;28;20479;-64
2022/07/11 09:02:33;;;;;;;0.52;0.32;;;18.90;99.90;;;;;;5093145;28;20089;-65
2022/07/11 09:05:00;;;;;;;0.30;0.30;;;18.90;99.90;;;;;;5092859;28;20062;-64
2022/07/11 09:07:26;;;;;;;0.40;0.20;;;18.80;99.90;;;;;;5093279;28;20550;-65
2022/07/11 09:09:52;;;;;;;3.90;0.65;;;18.80;99.90;;;;;;5092346;28;20068;-64
2022/07/11 09:12:18;;;;;;;0.40;0.30;;;18.70;99.90;;;;;;5093388;28;20086;-65
2022/07/11 09:14:48;;;;;;;0.30;0.30;;;18.50;99.90;;;;;;5093984;28;20213;-64
2022/07/11 09:17:14;;;;;;;0.63;0.20;;;18.40;99.90;;;;;;5087456;28;20218;-64
2022/07/11 09:19:40;;;;;;;0.30;0.30;;;18.30;99.90;;;;;;5092620;28;20135;-65
2022/07/11 09:25:24;;;;;;;0.75;0.30;;;18.30;99.90;;;;;;5092096;28;20101;-64
2022/07/11 09:28:01;;;;;;;0.20;0.20;;;18.30;99.90;;;;;;5092550;28;20490;-64
2022/07/11 09:30:27;;;;;;;0.40;0.30;;;18.40;99.90;;;;;;5092709;28;20414;-64
2022/07/11 09:32:58;;;;;;;0.68;0.30;;;18.30;99.90;;;;;;5093241;28;20047;-65
2022/07/11 09:35:37;;;;;;;0.90;0.28;;;18.30;99.90;;;;;;5092528;28;20391;-64
2022/07/11 09:38:08;;;;;;;0.32;0.28;;;18.30;99.90;;;;;;5074924;28;20044;-63
2022/07/11 09:40:34;;;;;;;1.20;1.20;;;18.30;99.90;;;;;;5092829;28;20514;-65
2022/07/11 09:43:00;;;;;;;0.88;0.30;;;18.30;99.90;;;;;;5091499;28;20080;-65
2022/07/11 09:45:28;;;;;;;1.15;0.30;;;18.20;99.90;;;;;;5089601;28;20040;-65
2022/07/11 09:47:57;;;;;;;0.32;0.30;;;18.30;99.90;;;;;;5093181;28;20517;-64
2022/07/11 09:50:28;;;;;;;0.82;0.30;;;18.40;99.90;;;;;;5092858;28;20398;-65
2022/07/11 09:53:07;;;;;;;0.60;0.30;;;18.50;99.90;;;;;;5091152;28;20039;-64
2022/07/11 09:55:38;;;;;;;1.15;0.50;;;18.50;99.90;;;;;;5091516;28;20052;-65
2022/07/11 09:58:09;;;;;;;0.20;0.20;;;18.60;99.90;;;;;;5091703;28;20040;-65
2022/07/11 10:00:37;;;;;;;0.65;0.20;;;18.60;99.90;;;;;;5093470;28;20047;-65
2022/07/11 10:03:04;;;;;;;0.85;0.20;;;18.60;99.90;;;;;;5091975;28;20036;-64
2022/07/11 10:05:31;;;;;;;0.20;0.20;;;18.60;99.90;;;;;;5090674;28;20119;-65
2022/07/11 10:07:58;;;;;;;0.20;0.20;;;18.60;99.90;;;;;;5075115;28;20522;-66
2022/07/11 10:10:24;;;;;;;0.35;0.20;;;18.50;99.90;;;;;;5125109;27;20042;-64
2022/07/11 10:12:52;;;;;;;0.13;0.13;;;18.50;99.90;;;;;;5094773;28;20104;-64
2022/07/11 10:15:28;;;;;;;0.63;0.20;;;18.60;99.90;;;;;;5091094;28;20051;-65
2022/07/11 10:18:10;;;;;;;1.00;0.30;;;18.70;99.90;;;;;;5090528;28;20115;-65
2022/07/11 10:20:42;;;;;;;0.20;0.20;;;18.80;99.90;;;;;;5091811;28;20040;-65
2022/07/11 10:23:33;;;;;;;0.28;0.28;;;18.90;99.90;;;;;;5091356;28;20096;-62
2022/07/11 10:26:11;;;;;;;0.30;0.20;;;19.00;99.90;;;;;;5123863;27;20052;-65
2022/07/11 10:28:41;;;;;;;0.20;0.20;;;19.10;99.90;;;;;;5074324;28;20048;-64
2022/07/11 10:31:19;;;;;;;0.25;0.13;;;19.10;99.90;;;;;;5088741;28;20160;-65
2022/07/11 10:34:06;;;;;;;0.35;0.20;;;19.10;99.90;;;;;;5089198;28;20054;-65
2022/07/11 10:36:39;;;;;;;0.55;0.30;;;19.10;99.90;;;;;;5084277;28;20055;-65
2022/07/11 10:39:24;;;;;;;0.10;0.10;;;19.30;99.90;;;;;;5090976;28;20040;-65
2022/07/11 10:41:51;;;;;;;0.20;0.20;;;19.30;99.90;;;;;;5091485;28;20093;-65
2022/07/11 10:44:17;;;;;;;0.40;0.20;;;19.40;99.90;;;;;;5074637;28;20082;-65
2022/07/11 10:46:43;;;;;;;0.20;0.20;;;19.60;99.90;;;;;;5091118;28;20056;-65
2022/07/11 10:49:15;;;;;;;0.22;0.20;;;19.70;99.90;;;;;;5091069;28;20482;-64
2022/07/11 10:51:55;;;;;;;0.50;0.20;;;19.80;99.90;;;;;;5090991;28;20134;-64
2022/07/11 10:54:42;;;;;;;0.20;0.20;;;19.80;99.90;;;;;;5090605;28;20036;-65
2022/07/11 10:57:20;;;;;;;0.20;0.20;;;19.80;99.90;;;;;;5091055;28;20036;-63
2022/07/11 10:59:56;;;;;;;0.20;0.20;;;19.90;99.90;;;;;;5092028;28;20028;-63
2022/07/11 11:02:22;;;;;;;0.20;0.20;;;20.00;99.90;;;;;;5090869;28;20074;-64
2022/07/11 11:04:59;;;;;;;0.20;0.20;;;20.10;99.90;;;;;;5104750;28;20048;-64
2022/07/11 11:07:42;;;;;;;0.30;0.20;;;20.20;99.90;;;;;;5091357;28;20054;-66
2022/07/11 11:10:07;;;;;;;0.20;0.20;;;20.20;99.90;;;;;;5090498;28;20123;-64
2022/07/11 11:13:04;;;;;;;0.15;0.15;;;20.20;99.90;;;;;;5090943;28;20107;-66
2022/07/11 11:15:47;;;;;;;0.45;0.20;;;20.10;99.90;;;;;;5089854;28;20505;-65
2022/07/11 11:18:25;;;;;;;0.13;0.13;;;20.00;99.90;;;;;;5090784;28;20422;-65
2022/07/11 11:21:02;;;;;;;1.42;0.20;;;19.90;99.90;;;;;;5090173;28;20169;-65
2022/07/11 11:23:34;;;;;;;0.20;0.20;;;19.90;99.90;;;;;;5091359;28;20044;-66
2022/07/11 11:26:10;;;;;;;;;;;19.90;99.90;;;;;;5091914;28;20054;-65
2022/07/11 11:28:38;;;;;;;0.30;0.28;;;19.80;99.90;;;;;;5091358;28;19916;-64
2022/07/11 11:31:06;;;;;;;0.10;0.10;;;19.90;99.90;;;;;;5090001;28;20060;-65
2022/07/11 11:33:34;;;;;;;0.20;0.20;;;19.80;99.90;;;;;;5070373;28;20058;-65
2022/07/11 11:36:06;;;;;;;0.20;0.20;;;19.80;99.90;;;;;;5090237;28;20125;-65
2022/07/11 11:38:41;;;;;;;0.20;0.20;;;19.80;99.90;;;;;;5089845;28;20102;-65
2022/07/11 11:41:08;;;;;;;0.63;0.20;;;19.90;99.90;;;;;;5089763;28;20422;-64
2022/07/11 11:43:35;;;;;;;0.47;0.20;;;19.90;99.90;;;;;;5089393;28;20035;-65
2022/07/11 11:46:02;;;;;;;0.70;0.20;;;20.00;99.90;;;;;;5089205;28;20071;-65
2022/07/11 11:48:28;;;;;;;0.20;0.20;;;20.10;99.90;;;;;;5090498;28;20059;-65
2022/07/11 11:51:09;;;;;;;1.10;0.30;;;20.20;99.90;;;;;;5089467;28;20043;-65
2022/07/11 11:53:45;;;;;;;0.30;0.30;;;20.30;99.90;;;;;;5091029;28;20040;-66
2022/07/11 11:56:23;;;;;;;1.02;0.65;;;20.20;99.90;;;;;;5089905;28;20047;-65
2022/07/11 11:58:51;;;;;;;1.08;0.40;;;20.20;99.90;;;;;;5086334;28;20079;-65
2022/07/11 12:01:24;;;;;;;0.43;0.20;;;20.10;99.90;;;;;;5092045;28;20036;-64
2022/07/11 12:04:12;;;;;;;0.20;0.15;;;20.10;99.90;;;;;;5071674;28;20395;-65
2022/07/11 12:06:46;;;;;;;0.25;0.20;;;20.20;99.90;;;;;;5086368;28;20040;-65
2022/07/11 12:09:22;;;;;;;1.10;0.22;;;20.30;99.90;;;;;;5088920;28;20077;-66
2022/07/11 12:12:43;;;;;;;0.25;0.25;;;20.30;99.90;;;;;;5089365;28;20031;-63
2022/07/11 12:14:38;;;;;;;0.25;0.20;;;20.40;99.90;;;;;;5089225;28;20124;-66
2022/07/11 12:17:04;;;;;;;0.20;0.20;;;20.40;99.90;;;;;;5090544;28;20502;-65
2022/07/11 12:19:34;;;;;;;0.30;0.30;;;20.40;99.90;;;;;;5090245;28;20114;-65
2022/07/11 12:22:05;;;;;;;0.98;0.40;;;20.40;99.90;;;;;;5088398;28;20052;-64
2022/07/11 12:24:31;;;;;;;0.60;0.20;;;20.40;99.90;;;;;;5087703;28;20043;-64
2022/07/11 12:26:57;;;;;;;1.25;0.30;;;20.30;99.90;;;;;;5091284;28;20501;-64
2022/07/11 12:29:24;;;;;;;0.30;0.20;;;20.40;99.90;;;;;;5088700;28;20437;-65
2022/07/11 12:31:58;;;;;;;1.77;0.17;;;20.40;99.90;;;;;;5089412;28;20076;-65
2022/07/11 12:34:33;;;;;;;0.17;0.17;;;20.50;99.90;;;;;;5088439;28;20111;-65
2022/07/11 12:37:13;;;;;;;3.00;0.30;;;20.60;99.90;;;;;;5089200;28;20075;-65
2022/07/11 12:39:54;;;;;;;1.00;0.20;;;20.60;99.90;;;;;;5072536;28;20503;-64
2022/07/11 12:42:34;;;;;;;0.20;0.20;;;20.60;99.90;;;;;;5089378;28;20032;-63
2022/07/11 12:45:08;;;;;;;0.55;0.10;;;20.70;99.90;;;;;;5089443;28;20737;-64
2022/07/11 12:47:42;;;;;;;0.20;0.20;;;20.70;99.90;;;;;;5089530;28;20044;-65
2022/07/11 12:50:18;;;;;;;0.55;0.20;;;20.70;99.90;;;;;;5089146;28;20113;-64
2022/07/11 12:52:47;;;;;;;0.85;0.20;;;20.60;99.90;;;;;;5089740;28;20044;-65
2022/07/11 12:55:20;;;;;;;1.10;0.30;;;20.60;99.90;;;;;;5088110;28;20080;-65
2022/07/11 12:58:05;;;;;;;0.90;0.20;;;20.60;99.90;;;;;;5089334;28;20402;-64
2022/07/11 13:00:32;;;;;;;0.32;0.20;;;20.70;99.90;;;;;;5090690;28;20036;-64